Etusivu
METAR-TAF:

METAR-TAF

Lentoasemat :

South Alabama Regional Airport

Andalusia, Alabama, Yhdysvallat

Leveyspiiri: 31-18-00N, Pituuspiiri: 086-23-00W, korkeus merenpinnasta: 94 m

Tämänhetkinen sää

Tämä raportti tehtiin 49 minuuttia sitten, kello 23.56 UTC
Tuuli 4 kn etelästä
Lämpötila 24°C
Kosteus 65%
Ilmanpaine 1020 hPa
Näkyvyys: 16.1 km
Hajanaisia pilviä 3300 ft:n korkeudessa

METAR: K79J 272356Z AUTO 19004KT 10SM SCT033 24/17 A3012 RMK AO2 SLP196 60000 T02390172 10272 20239 53004

Aika: 18:45 (00:45 UTC)


TAF: puuttuu

Säähavainnot ja -ennusteet yli 4000 lentoasemalta (METAR- ja TAF-raportit).

Käytössä olevat sääasemat on merkitty karttaan keltaisilla ja punaisilla pisteillä.

Aseta hiiri pisteen päälle nähdäksesi sääaseman nimen.

Klikkaa sitten nähdäksesi säähavainnot ja -ennusteet.

Kartan vaihtaminen: klikkaa mustalla rastilla varustettuja vihreitä pisteitä, niin voit zoomata sisään; viivalla varustettua vihreää pistettä, niin voit zoomata ulos tai vihreitä nuolia, niin pääset viereisille kartoille.


METAR-TAF: